Time;durP1;ratioP1;P1;durP2;ratioP2;P2;SDS_P1;SDS_P2;PMS_P1;PMS_P2;Temp;Humidity;BMP_temperature;BMP_pressure;BME280_temperature;BME280_humidity;BME280_pressure;Samples;Min_cycle;Max_cycle;Signal;HPM_P1;HPM_P2
2022/05/15 00:01:27;;;;;;;6.13;1.95;;;15.30;66.50;;;;;;2072718;28;20038;-90
2022/05/15 00:02:46;;;;;;;7.80;2.15;;;15.20;66.50;;;;;;2060619;28;20054;-91
2022/05/15 00:04:07;;;;;;;6.82;2.00;;;15.20;66.50;;;;;;2054076;28;20035;-91
2022/05/15 00:05:26;;;;;;;8.30;2.30;;;15.20;66.60;;;;;;2060014;28;20050;-91
2022/05/15 00:06:45;;;;;;;7.45;2.08;;;15.20;66.60;;;;;;2066775;28;20528;-91
2022/05/15 00:08:05;;;;;;;7.55;2.05;;;15.20;66.60;;;;;;2057524;28;20070;-92
2022/05/15 00:09:24;;;;;;;7.18;2.08;;;15.20;66.60;;;;;;2069961;28;20054;-91
2022/05/15 00:10:44;;;;;;;10.55;2.25;;;15.20;66.60;;;;;;2060123;28;20038;-91
2022/05/15 00:12:05;;;;;;;7.97;2.13;;;15.20;66.70;;;;;;2066587;28;20082;-92
2022/05/15 00:13:25;;;;;;;8.85;2.10;;;15.20;66.70;;;;;;2067309;28;20034;-91
2022/05/15 00:14:45;;;;;;;8.35;2.40;;;15.20;66.80;;;;;;2076640;28;20042;-91
2022/05/15 00:16:04;;;;;;;8.15;2.20;;;15.20;66.70;;;;;;2078337;28;20018;-84
2022/05/15 00:17:24;;;;;;;8.52;1.98;;;15.20;66.80;;;;;;2081682;28;20030;-89
2022/05/15 00:18:44;;;;;;;6.68;2.20;;;15.20;66.80;;;;;;2068259;28;20046;-91
2022/05/15 00:20:03;;;;;;;8.00;2.20;;;15.20;66.90;;;;;;2085801;28;20021;-83
2022/05/15 00:21:23;;;;;;;7.60;2.38;;;15.20;66.90;;;;;;2059573;28;20043;-92
2022/05/15 00:22:42;;;;;;;6.72;2.33;;;15.10;66.90;;;;;;2063296;28;20042;-92
2022/05/15 00:24:03;;;;;;;10.52;2.30;;;15.20;66.90;;;;;;2062251;28;20054;-91
2022/05/15 00:25:23;;;;;;;9.15;2.28;;;15.10;66.90;;;;;;2071858;28;20042;-91
2022/05/15 00:26:42;;;;;;;14.05;2.75;;;15.10;66.90;;;;;;2063949;28;20157;-91
2022/05/15 00:28:02;;;;;;;10.27;2.42;;;15.10;67.00;;;;;;2068966;28;20034;-91
2022/05/15 00:29:22;;;;;;;8.25;2.38;;;15.10;66.90;;;;;;2078511;28;20034;-92
2022/05/15 00:30:41;;;;;;;8.10;2.28;;;15.10;66.90;;;;;;2058155;28;20125;-92
2022/05/15 00:32:00;;;;;;;7.88;2.10;;;15.10;66.90;;;;;;2052519;28;20505;-91
2022/05/15 00:33:20;;;;;;;10.05;2.03;;;15.10;66.90;;;;;;2071399;28;20404;-91
2022/05/15 00:34:39;;;;;;;7.90;2.22;;;15.10;66.90;;;;;;2072043;28;20069;-91
2022/05/15 00:35:58;;;;;;;8.18;2.22;;;15.10;66.90;;;;;;2067479;28;20038;-91
2022/05/15 00:37:17;;;;;;;6.00;1.65;;;15.10;67.00;;;;;;2071379;28;20050;-91
2022/05/15 00:38:37;;;;;;;9.25;2.70;;;15.10;67.00;;;;;;2071181;28;20472;-91
2022/05/15 00:39:57;;;;;;;8.65;2.10;;;15.10;67.00;;;;;;2071284;28;20046;-90
2022/05/15 00:41:17;;;;;;;7.82;2.30;;;15.10;67.10;;;;;;2078275;28;20030;-91
2022/05/15 00:42:36;;;;;;;8.20;2.22;;;15.00;67.10;;;;;;2054047;28;20047;-90
2022/05/15 00:43:57;;;;;;;7.40;2.10;;;15.10;67.20;;;;;;2060081;28;20431;-91
2022/05/15 00:45:19;;;;;;;8.27;2.20;;;15.00;67.20;;;;;;2060222;28;20050;-91
2022/05/15 00:46:40;;;;;;;10.65;2.38;;;15.00;67.20;;;;;;2063546;28;20496;-91
2022/05/15 00:48:00;;;;;;;9.00;2.35;;;15.00;67.20;;;;;;2063927;28;20121;-90
2022/05/15 00:49:19;;;;;;;8.15;2.20;;;15.00;67.30;;;;;;2063110;28;20038;-91
2022/05/15 00:50:39;;;;;;;7.60;1.95;;;15.00;67.30;;;;;;2060114;28;20054;-92
2022/05/15 00:52:03;;;;;;;7.55;2.30;;;15.00;67.30;;;;;;2054542;28;20054;-91
2022/05/15 00:53:22;;;;;;;6.50;2.00;;;15.00;67.40;;;;;;2061009;28;20038;-92
2022/05/15 00:54:57;;;;;;;8.43;2.30;;;15.00;67.40;;;;;;2055901;28;20137;-91
2022/05/15 00:56:19;;;;;;;6.70;1.90;;;15.00;67.50;;;;;;2065596;28;20033;-92
2022/05/15 00:57:52;;;;;;;7.22;2.00;;;14.90;67.40;;;;;;2069150;28;20042;-90
2022/05/15 00:59:15;;;;;;;9.90;2.42;;;15.00;67.50;;;;;;2063062;28;20125;-92
2022/05/15 01:00:35;;;;;;;7.75;2.13;;;14.90;67.50;;;;;;2058670;28;20046;-92
2022/05/15 01:01:54;;;;;;;7.82;2.00;;;14.90;67.50;;;;;;2068595;28;20488;-92
2022/05/15 01:03:16;;;;;;;11.70;2.60;;;14.90;67.50;;;;;;2070394;28;20121;-91
2022/05/15 01:04:36;;;;;;;8.18;2.35;;;14.90;67.60;;;;;;2068479;28;20046;-91
2022/05/15 01:05:56;;;;;;;8.70;2.20;;;14.90;67.70;;;;;;2067110;28;20413;-91
2022/05/15 01:07:16;;;;;;;7.70;2.15;;;14.80;67.70;;;;;;2062763;28;20137;-92
2022/05/15 01:08:35;;;;;;;10.75;2.75;;;14.80;67.70;;;;;;2060596;28;20035;-91
2022/05/15 01:09:55;;;;;;;7.90;2.28;;;14.80;67.70;;;;;;2067032;28;20038;-91
2022/05/15 01:11:18;;;;;;;10.38;2.53;;;14.80;67.80;;;;;;2068305;28;20057;-91
2022/05/15 01:12:40;;;;;;;9.23;2.58;;;14.80;67.90;;;;;;2073107;28;20042;-92
2022/05/15 01:14:05;;;;;;;7.93;2.13;;;14.80;67.90;;;;;;2066013;28;20030;-91
2022/05/15 01:15:27;;;;;;;8.63;2.42;;;14.80;67.90;;;;;;2062586;28;20433;-90
2022/05/15 01:16:47;;;;;;;11.07;2.40;;;14.80;68.00;;;;;;2073863;28;20034;-91
2022/05/15 01:18:08;;;;;;;7.47;2.03;;;14.80;67.90;;;;;;2059097;28;20042;-90
2022/05/15 01:19:28;;;;;;;;;;;14.80;68.00;;;;;;2053385;28;20042;-91
2022/05/15 01:20:56;;;;;;;11.07;2.20;;;14.70;67.90;;;;;;2061112;28;20004;-90
2022/05/15 01:22:16;;;;;;;9.27;2.20;;;14.70;67.90;;;;;;2072275;28;20108;-91
2022/05/15 01:23:35;;;;;;;8.25;2.28;;;14.70;67.90;;;;;;2063978;28;20042;-91
2022/05/15 01:24:55;;;;;;;8.50;2.30;;;14.70;67.90;;;;;;2057411;28;20122;-91
2022/05/15 01:26:14;;;;;;;8.70;2.20;;;14.70;68.00;;;;;;2065479;28;20045;-91
2022/05/15 01:27:34;;;;;;;6.63;2.03;;;14.70;68.00;;;;;;2072244;28;20030;-90
2022/05/15 01:28:54;;;;;;;6.72;2.10;;;14.70;68.00;;;;;;2049989;28;20039;-91
2022/05/15 01:30:13;;;;;;;9.93;2.35;;;14.70;68.10;;;;;;2053483;28;20042;-90
2022/05/15 01:31:32;;;;;;;12.52;2.63;;;14.70;68.70;;;;;;2054032;28;20055;-90
2022/05/15 01:32:52;;;;;;;7.97;2.15;;;14.70;68.10;;;;;;2067041;28;20488;-91
2022/05/15 01:34:11;;;;;;;9.50;2.20;;;14.70;68.10;;;;;;2067747;28;20070;-91
2022/05/15 01:35:30;;;;;;;8.15;2.22;;;14.70;68.20;;;;;;2073161;28;20042;-91
2022/05/15 01:36:50;;;;;;;7.43;2.08;;;14.70;68.10;;;;;;2074233;28;20054;-91
2022/05/15 01:38:10;;;;;;;9.15;2.13;;;14.60;68.10;;;;;;2067760;28;20065;-92
2022/05/15 01:39:29;;;;;;;8.15;1.90;;;14.60;68.00;;;;;;2062157;28;20042;-90
2022/05/15 01:40:49;;;;;;;7.80;2.33;;;14.60;68.00;;;;;;2068188;28;20432;-90
2022/05/15 01:42:09;;;;;;;8.68;2.17;;;14.60;68.00;;;;;;2070122;28;20050;-91
2022/05/15 01:43:28;;;;;;;9.23;2.13;;;14.70;68.00;;;;;;2061647;28;20070;-90
2022/05/15 01:44:47;;;;;;;6.72;2.00;;;14.60;67.90;;;;;;2062771;28;20125;-92
2022/05/15 01:46:07;;;;;;;7.43;1.80;;;14.60;68.00;;;;;;2067997;28;20037;-91
2022/05/15 01:47:26;;;;;;;10.05;2.22;;;14.60;67.90;;;;;;2065959;28;20042;-92
2022/05/15 01:48:45;;;;;;;8.57;2.03;;;14.60;67.90;;;;;;2078735;28;20034;-91
2022/05/15 01:50:05;;;;;;;5.57;1.85;;;14.60;67.80;;;;;;2083585;28;20026;-90
2022/05/15 01:51:25;;;;;;;9.15;2.28;;;14.60;67.80;;;;;;2065133;28;20086;-90
2022/05/15 01:52:45;;;;;;;9.57;2.15;;;14.60;67.80;;;;;;2063130;28;20046;-91
2022/05/15 01:54:05;;;;;;;6.32;1.70;;;14.60;67.90;;;;;;2056889;28;20046;-91
2022/05/15 01:55:24;;;;;;;7.57;1.88;;;14.60;67.90;;;;;;2066671;28;20030;-86
2022/05/15 01:56:44;;;;;;;7.10;1.70;;;14.60;67.80;;;;;;2068128;28;20031;-83
2022/05/15 01:58:03;;;;;;;8.25;1.85;;;14.60;67.80;;;;;;2073198;28;20037;-90
2022/05/15 01:59:22;;;;;;;9.60;1.92;;;14.60;67.90;;;;;;2078515;28;20037;-85
2022/05/15 02:00:42;;;;;;;10.63;2.50;;;14.60;67.80;;;;;;2073142;28;20042;-91
2022/05/15 02:02:02;;;;;;;7.65;1.77;;;14.60;67.90;;;;;;2074770;28;20037;-91
2022/05/15 02:03:21;;;;;;;6.80;1.75;;;14.60;67.90;;;;;;2074832;28;20444;-90
2022/05/15 02:04:40;;;;;;;9.30;2.30;;;14.60;67.90;;;;;;2062333;28;20035;-91
2022/05/15 02:06:00;;;;;;;8.20;2.05;;;14.50;67.90;;;;;;2058941;28;20047;-91
2022/05/15 02:07:19;;;;;;;7.57;2.03;;;14.50;68.00;;;;;;2044251;29;20122;-91
2022/05/15 02:08:39;;;;;;;7.55;2.45;;;14.50;68.00;;;;;;2071291;28;20030;-83
2022/05/15 02:09:58;;;;;;;8.05;2.00;;;14.50;68.00;;;;;;2070867;28;20082;-90
2022/05/15 02:11:17;;;;;;;6.60;1.75;;;14.50;68.10;;;;;;2062052;28;20038;-91
2022/05/15 02:12:37;;;;;;;7.22;2.35;;;14.50;68.20;;;;;;2047181;28;20409;-91
2022/05/15 02:13:56;;;;;;;7.18;1.88;;;14.50;68.20;;;;;;2058461;28;20464;-91
2022/05/15 02:15:15;;;;;;;10.35;2.20;;;14.50;68.20;;;;;;2062061;28;20078;-90
2022/05/15 02:16:37;;;;;;;9.20;2.30;;;14.40;68.20;;;;;;2056654;28;20051;-91
2022/05/15 02:17:56;;;;;;;9.93;2.00;;;14.50;68.30;;;;;;2067752;28;20037;-90
2022/05/15 02:19:16;;;;;;;8.05;2.22;;;14.40;68.40;;;;;;2065663;28;20039;-91
2022/05/15 02:20:36;;;;;;;10.18;2.58;;;14.40;68.50;;;;;;2052336;28;20388;-91
2022/05/15 02:21:55;;;;;;;8.63;2.20;;;14.40;68.50;;;;;;2062494;28;20046;-91
2022/05/15 02:23:14;;;;;;;8.35;2.13;;;14.40;68.50;;;;;;2069773;28;20049;-90
2022/05/15 02:24:33;;;;;;;8.15;2.10;;;14.40;68.50;;;;;;2073997;28;20046;-91
2022/05/15 02:25:54;;;;;;;8.80;2.28;;;14.40;68.60;;;;;;2069355;28;20041;-91
2022/05/15 02:27:13;;;;;;;6.90;2.22;;;14.40;68.60;;;;;;2074459;28;20065;-91
2022/05/15 02:28:32;;;;;;;8.85;2.05;;;14.40;68.70;;;;;;2057366;28;20046;-91
2022/05/15 02:29:51;;;;;;;10.43;2.08;;;14.40;68.70;;;;;;2065018;28;20147;-91
2022/05/15 02:31:11;;;;;;;7.75;2.10;;;14.40;68.80;;;;;;2064326;28;20046;-91
2022/05/15 02:32:30;;;;;;;9.55;2.30;;;14.30;68.70;;;;;;2047713;28;20055;-91
2022/05/15 02:33:50;;;;;;;9.27;2.10;;;14.40;68.90;;;;;;2056177;28;20508;-91
2022/05/15 02:35:10;;;;;;;7.00;1.92;;;14.30;68.90;;;;;;2070947;28;20042;-91
2022/05/15 02:36:30;;;;;;;10.20;2.15;;;14.40;69.00;;;;;;2067409;28;20439;-91
2022/05/15 02:37:49;;;;;;;9.82;2.25;;;14.30;69.00;;;;;;2070761;28;20046;-91
2022/05/15 02:39:09;;;;;;;8.88;2.00;;;14.30;69.00;;;;;;2064834;28;20078;-91
2022/05/15 02:40:29;;;;;;;7.55;1.70;;;14.30;69.10;;;;;;2060820;28;20030;-91
2022/05/15 02:41:48;;;;;;;8.60;2.13;;;14.30;69.10;;;;;;2068414;28;20136;-91
2022/05/15 02:43:07;;;;;;;8.88;2.60;;;14.30;69.20;;;;;;2070715;28;20050;-91
2022/05/15 02:44:27;;;;;;;8.38;2.17;;;14.30;69.20;;;;;;2069250;28;20042;-91
2022/05/15 02:45:47;;;;;;;8.35;2.08;;;14.30;69.30;;;;;;2063230;28;20042;-90
2022/05/15 02:47:09;;;;;;;7.22;2.17;;;14.30;69.30;;;;;;2079020;28;20069;-91
2022/05/15 02:51:45;;;;;;;8.05;1.90;;;14.30;69.40;;;;;;2079683;28;20053;-90
2022/05/15 02:53:05;;;;;;;9.45;2.20;;;14.30;69.40;;;;;;2081064;28;20472;-91
2022/05/15 02:54:25;;;;;;;7.95;2.00;;;14.30;69.50;;;;;;2074833;28;20045;-91
2022/05/15 02:55:44;;;;;;;10.45;2.00;;;14.20;69.50;;;;;;2062485;28;20097;-90
2022/05/15 02:57:05;;;;;;;10.02;2.13;;;14.20;69.60;;;;;;2067679;28;20050;-91
2022/05/15 02:58:24;;;;;;;7.50;2.22;;;14.20;69.60;;;;;;2069300;28;20041;-91
2022/05/15 02:59:43;;;;;;;6.22;1.77;;;14.20;69.60;;;;;;2068026;28;20065;-91
2022/05/15 03:01:03;;;;;;;7.30;1.90;;;14.20;69.70;;;;;;2057966;28;20952;-90
2022/05/15 03:02:22;;;;;;;10.60;2.17;;;14.20;69.80;;;;;;2055553;28;20102;-90
2022/05/15 03:03:43;;;;;;;7.50;2.00;;;14.20;69.90;;;;;;2071107;28;20046;-91
2022/05/15 03:05:02;;;;;;;8.88;2.13;;;14.20;69.90;;;;;;2081880;28;20053;-91
2022/05/15 03:06:22;;;;;;;9.80;2.50;;;14.20;70.00;;;;;;2081442;28;20038;-91
2022/05/15 03:07:43;;;;;;;8.60;2.20;;;14.20;70.10;;;;;;2066969;28;20445;-91
2022/05/15 03:09:03;;;;;;;9.05;2.40;;;14.10;70.10;;;;;;2068928;28;20096;-90
2022/05/15 03:10:22;;;;;;;8.50;2.15;;;14.10;70.10;;;;;;2073293;28;20041;-90
2022/05/15 03:11:42;;;;;;;7.43;2.13;;;14.10;70.20;;;;;;2078281;28;20053;-90
2022/05/15 03:13:01;;;;;;;5.88;1.60;;;14.10;70.30;;;;;;2081871;28;20451;-91
2022/05/15 03:14:20;;;;;;;6.72;2.10;;;14.10;70.30;;;;;;2080793;28;20053;-91
2022/05/15 03:15:41;;;;;;;6.78;1.80;;;14.10;70.40;;;;;;2080747;28;20443;-91
2022/05/15 03:17:00;;;;;;;5.95;1.67;;;14.10;70.50;;;;;;2076705;28;20034;-91
2022/05/15 03:18:19;;;;;;;6.75;1.92;;;14.10;70.50;;;;;;2080450;28;20042;-90
2022/05/15 03:19:38;;;;;;;8.18;2.10;;;14.10;71.10;;;;;;2064906;28;20054;-90
2022/05/15 03:20:58;;;;;;;8.32;2.50;;;14.10;70.60;;;;;;2070850;28;20045;-90
2022/05/15 03:22:17;;;;;;;9.80;2.67;;;14.00;70.60;;;;;;2063137;28;20419;-90
2022/05/15 03:23:37;;;;;;;8.27;2.28;;;14.10;70.70;;;;;;2074639;28;20063;-90
2022/05/15 03:24:56;;;;;;;8.75;2.33;;;14.00;70.70;;;;;;2080710;28;20045;-90
2022/05/15 03:26:15;;;;;;;9.45;2.30;;;14.00;70.80;;;;;;2081667;28;20496;-90
2022/05/15 03:27:35;;;;;;;8.05;2.20;;;14.00;70.80;;;;;;2074383;28;20072;-90
2022/05/15 03:28:54;;;;;;;7.35;1.98;;;14.00;70.90;;;;;;2080492;28;20033;-90
2022/05/15 03:30:14;;;;;;;8.10;1.80;;;14.00;70.90;;;;;;2081473;28;20041;-91
2022/05/15 03:31:39;;;;;;;7.25;2.17;;;14.00;70.90;;;;;;2069040;28;20576;-91
2022/05/15 03:32:58;;;;;;;10.23;2.13;;;14.00;71.00;;;;;;2067796;28;20132;-90
2022/05/15 03:34:18;;;;;;;7.43;2.10;;;14.00;71.10;;;;;;2072474;28;20041;-91
2022/05/15 03:35:38;;;;;;;6.55;1.70;;;14.00;71.10;;;;;;2081573;28;20041;-91
2022/05/15 03:36:58;;;;;;;6.22;1.95;;;14.00;71.80;;;;;;2082759;28;20041;-82
2022/05/15 03:38:17;;;;;;;9.15;2.03;;;14.00;71.20;;;;;;2091843;28;20041;-89
2022/05/15 03:39:36;;;;;;;9.30;1.90;;;13.90;71.20;;;;;;2086947;28;20037;-91
2022/05/15 03:40:55;;;;;;;6.88;1.90;;;13.90;71.30;;;;;;2078056;28;20042;-90
2022/05/15 03:42:15;;;;;;;9.02;2.30;;;13.90;71.40;;;;;;2086629;28;20094;-87
2022/05/15 03:43:35;;;;;;;6.55;1.90;;;13.90;71.40;;;;;;2082794;28;20046;-91
2022/05/15 03:44:54;;;;;;;7.55;2.05;;;13.90;71.50;;;;;;2077441;28;20041;-90
2022/05/15 03:46:13;;;;;;;8.18;2.10;;;13.90;71.50;;;;;;2071391;28;20513;-91
2022/05/15 03:47:35;;;;;;;7.10;1.80;;;13.90;71.60;;;;;;2059316;28;20038;-90
2022/05/15 03:48:54;;;;;;;9.75;2.28;;;13.90;71.60;;;;;;2070881;28;20046;-91
2022/05/15 03:50:15;;;;;;;6.80;2.20;;;13.90;71.60;;;;;;2084754;28;20026;-85
2022/05/15 03:51:35;;;;;;;8.43;2.38;;;13.80;71.60;;;;;;2069539;28;20500;-91
2022/05/15 03:52:55;;;;;;;8.30;2.03;;;13.90;71.70;;;;;;2059879;28;20115;-90
2022/05/15 03:54:14;;;;;;;9.23;2.33;;;13.90;71.70;;;;;;2057881;28;20496;-90
2022/05/15 03:55:33;;;;;;;7.70;2.13;;;13.80;71.70;;;;;;2080018;28;20033;-91
2022/05/15 03:56:52;;;;;;;8.90;2.10;;;13.80;71.80;;;;;;2076248;28;20060;-90
2022/05/15 03:58:12;;;;;;;6.88;2.00;;;13.80;71.90;;;;;;2073219;28;20073;-91
2022/05/15 03:59:35;;;;;;;7.40;1.95;;;13.80;71.90;;;;;;2078715;28;20129;-91
2022/05/15 04:00:54;;;;;;;9.35;1.80;;;13.80;72.00;;;;;;2066434;28;20062;-91
2022/05/15 04:02:13;;;;;;;9.18;2.33;;;13.80;72.10;;;;;;2064467;28;20493;-91
2022/05/15 04:03:33;;;;;;;6.05;1.90;;;13.80;72.10;;;;;;2055708;28;20046;-91
2022/05/15 04:04:52;;;;;;;7.25;2.05;;;13.70;72.00;;;;;;2058133;28;20030;-91
2022/05/15 04:06:12;;;;;;;7.93;1.95;;;13.80;72.10;;;;;;2066554;28;20046;-91
2022/05/15 04:07:31;;;;;;;7.28;2.00;;;13.80;72.20;;;;;;2063791;28;20046;-91
2022/05/15 04:08:51;;;;;;;9.15;2.33;;;13.80;72.20;;;;;;2068377;28;20053;-90
2022/05/15 04:10:11;;;;;;;6.82;1.90;;;13.70;72.20;;;;;;2074372;28;20045;-90
2022/05/15 04:11:30;;;;;;;8.40;2.15;;;13.70;72.20;;;;;;2070860;28;20050;-90
2022/05/15 04:12:49;;;;;;;9.05;2.33;;;13.70;72.30;;;;;;2061196;28;20043;-90
2022/05/15 04:14:09;;;;;;;6.65;1.85;;;13.70;72.30;;;;;;2061992;28;20046;-90
2022/05/15 04:15:28;;;;;;;7.13;1.90;;;13.70;72.30;;;;;;2075364;28;20405;-91
2022/05/15 04:16:47;;;;;;;10.20;2.20;;;13.70;72.30;;;;;;2075682;28;20045;-90
2022/05/15 04:18:09;;;;;;;10.07;2.38;;;13.70;72.40;;;;;;2060575;28;20474;-91
2022/05/15 04:19:28;;;;;;;8.32;2.10;;;13.80;72.50;;;;;;2075547;28;20045;-90
2022/05/15 04:20:47;;;;;;;5.78;1.98;;;13.70;72.50;;;;;;2051902;28;20043;-89
2022/05/15 04:22:07;;;;;;;8.25;2.20;;;13.70;72.60;;;;;;2056043;28;20043;-91
2022/05/15 04:23:26;;;;;;;8.07;2.05;;;13.70;72.60;;;;;;2051791;28;20043;-92
2022/05/15 04:24:45;;;;;;;6.57;2.10;;;13.70;72.70;;;;;;2065926;28;20796;-91
2022/05/15 04:26:05;;;;;;;9.05;2.28;;;13.70;72.70;;;;;;2057896;28;20042;-91
2022/05/15 04:27:24;;;;;;;7.43;2.00;;;13.70;72.80;;;;;;2071907;28;20041;-91
2022/05/15 04:28:43;;;;;;;7.45;2.28;;;13.70;72.80;;;;;;2075165;28;20089;-90
2022/05/15 04:30:03;;;;;;;6.88;2.00;;;13.60;72.80;;;;;;2074388;28;20061;-91
2022/05/15 04:31:22;;;;;;;8.48;1.98;;;13.70;72.80;;;;;;2070338;28;20049;-91
2022/05/15 04:32:42;;;;;;;8.60;2.20;;;13.70;72.90;;;;;;2056244;28;20114;-91
2022/05/15 04:34:02;;;;;;;11.30;2.65;;;13.70;72.90;;;;;;2068857;28;20117;-90
2022/05/15 04:35:23;;;;;;;8.63;1.88;;;13.60;72.90;;;;;;2063058;28;20046;-89
2022/05/15 04:36:42;;;;;;;8.85;2.10;;;13.60;72.90;;;;;;2074334;28;20089;-90
2022/05/15 04:38:01;;;;;;;6.70;2.50;;;13.70;73.00;;;;;;2065946;28;20042;-91
2022/05/15 04:39:22;;;;;;;8.02;2.00;;;13.70;73.00;;;;;;2066740;28;20049;-90
2022/05/15 04:40:41;;;;;;;7.72;1.80;;;13.70;73.00;;;;;;2063034;28;20042;-90
2022/05/15 04:42:01;;;;;;;6.55;1.92;;;13.70;73.00;;;;;;2067971;28;20129;-91
2022/05/15 04:43:21;;;;;;;10.43;2.50;;;13.70;73.00;;;;;;2071493;28;20053;-92
2022/05/15 04:44:39;;;;;;;6.95;1.90;;;13.70;73.00;;;;;;2073083;28;20112;-90
2022/05/15 04:45:59;;;;;;;8.38;2.10;;;13.70;73.00;;;;;;2073494;28;20502;-91
2022/05/15 04:47:18;;;;;;;6.95;2.13;;;13.70;73.00;;;;;;2071376;28;20054;-91
2022/05/15 04:48:37;;;;;;;8.88;2.40;;;13.70;73.10;;;;;;2059924;28;20054;-92
2022/05/15 04:49:57;;;;;;;9.52;2.53;;;13.70;73.00;;;;;;2062170;28;20125;-91
2022/05/15 04:51:16;;;;;;;9.15;2.33;;;13.70;73.70;;;;;;2051379;28;20437;-91
2022/05/15 04:52:35;;;;;;;7.60;2.30;;;13.70;73.10;;;;;;2065120;28;20046;-91
2022/05/15 04:53:55;;;;;;;8.50;2.03;;;13.70;73.10;;;;;;2063886;28;20082;-90
2022/05/15 04:55:15;;;;;;;7.72;1.92;;;13.70;73.10;;;;;;2076030;28;20033;-91
2022/05/15 04:56:35;;;;;;;6.70;2.28;;;13.80;73.10;;;;;;2065469;28;20125;-91
2022/05/15 04:57:54;;;;;;;7.25;1.92;;;13.80;73.10;;;;;;2064176;28;20038;-91
2022/05/15 04:59:14;;;;;;;7.50;2.05;;;13.80;73.10;;;;;;2069460;28;20066;-91
2022/05/15 05:00:33;;;;;;;6.15;1.92;;;13.80;73.10;;;;;;2060487;28;20047;-91
2022/05/15 05:01:52;;;;;;;6.88;1.88;;;13.80;73.10;;;;;;2067988;28;20046;-90
2022/05/15 05:03:12;;;;;;;7.28;2.10;;;13.80;73.10;;;;;;2074309;28;20435;-91
2022/05/15 05:04:31;;;;;;;4.85;1.65;;;13.90;73.10;;;;;;2080141;28;20045;-91
2022/05/15 05:05:50;;;;;;;9.15;2.20;;;13.90;73.20;;;;;;2061664;28;20034;-91
2022/05/15 05:07:10;;;;;;;6.57;2.10;;;13.90;73.10;;;;;;2066108;28;20045;-90
2022/05/15 05:08:29;;;;;;;6.50;1.70;;;14.00;73.10;;;;;;2069727;28;20042;-91
2022/05/15 05:09:48;;;;;;;9.25;2.47;;;14.00;73.00;;;;;;2073353;28;20113;-90
2022/05/15 05:11:07;;;;;;;9.75;2.20;;;14.00;72.90;;;;;;2061958;28;20468;-91
2022/05/15 05:12:26;;;;;;;10.05;2.33;;;14.10;72.90;;;;;;2068128;28;20041;-91
2022/05/15 05:13:46;;;;;;;7.53;2.10;;;14.10;72.90;;;;;;2073443;28;20029;-91
2022/05/15 05:15:07;;;;;;;6.35;2.13;;;14.20;72.80;;;;;;2069303;28;20124;-91
2022/05/15 05:16:27;;;;;;;10.43;2.50;;;14.20;72.70;;;;;;2070239;28;20041;-90
2022/05/15 05:17:46;;;;;;;7.22;2.08;;;14.30;72.60;;;;;;2063868;28;20058;-91
2022/05/15 05:19:06;;;;;;;8.55;2.30;;;14.30;72.40;;;;;;2064694;28;20046;-91
2022/05/15 05:20:26;;;;;;;9.27;2.42;;;14.40;72.40;;;;;;2083527;28;20030;-89
2022/05/15 05:21:46;;;;;;;7.65;2.13;;;14.50;72.30;;;;;;2087138;28;20026;-91
2022/05/15 05:23:05;;;;;;;7.25;2.22;;;14.50;72.10;;;;;;2076268;28;20042;-91
2022/05/15 05:24:24;;;;;;;6.57;1.85;;;14.60;72.10;;;;;;2083474;28;20038;-83
2022/05/15 05:25:43;;;;;;;8.55;2.30;;;14.60;71.90;;;;;;2074865;28;20037;-91
2022/05/15 05:27:03;;;;;;;7.97;1.88;;;14.70;71.90;;;;;;2071616;28;20042;-91
2022/05/15 05:28:23;;;;;;;8.65;2.50;;;14.80;71.70;;;;;;2070763;28;20030;-91
2022/05/15 05:29:42;;;;;;;8.13;2.00;;;14.80;71.50;;;;;;2068490;28;20125;-91
2022/05/15 05:31:01;;;;;;;9.02;2.38;;;14.90;71.50;;;;;;2066855;28;20070;-91
2022/05/15 05:32:20;;;;;;;9.77;2.70;;;14.90;71.40;;;;;;2079739;28;20022;-81
2022/05/15 05:33:40;;;;;;;9.80;2.50;;;15.00;71.30;;;;;;2081260;28;20026;-87
2022/05/15 05:34:59;;;;;;;7.65;2.10;;;15.00;71.20;;;;;;2072955;28;20058;-91
2022/05/15 05:36:19;;;;;;;4.95;1.95;;;15.00;71.20;;;;;;2070849;28;20128;-91
2022/05/15 05:37:39;;;;;;;6.38;1.90;;;15.00;71.20;;;;;;2071552;28;20484;-91
2022/05/15 05:38:58;;;;;;;9.48;2.42;;;15.10;71.10;;;;;;2073248;28;20206;-91
2022/05/15 05:40:19;;;;;;;8.15;2.03;;;15.20;71.00;;;;;;2061567;28;20038;-91
2022/05/15 05:41:38;;;;;;;11.15;2.63;;;15.30;70.90;;;;;;2067883;28;20054;-92
2022/05/15 05:42:57;;;;;;;7.15;2.08;;;15.30;70.70;;;;;;2074945;28;20501;-91
2022/05/15 05:44:17;;;;;;;5.90;1.85;;;15.30;70.70;;;;;;2067566;28;20043;-91
2022/05/15 05:45:36;;;;;;;8.18;2.08;;;15.40;70.60;;;;;;2057996;28;20051;-92
2022/05/15 05:46:55;;;;;;;7.60;2.40;;;15.50;70.60;;;;;;2079064;28;20038;-91
2022/05/15 05:48:15;;;;;;;7.88;2.22;;;15.50;70.40;;;;;;2066186;28;20042;-92
2022/05/15 05:49:34;;;;;;;7.15;2.35;;;15.60;70.40;;;;;;2076217;28;20504;-93
2022/05/15 05:50:53;;;;;;;6.72;2.20;;;15.60;70.30;;;;;;2080921;28;20068;-91
2022/05/15 05:52:13;;;;;;;6.85;1.90;;;15.70;70.20;;;;;;2072168;28;20077;-92
2022/05/15 05:53:33;;;;;;;7.57;1.92;;;15.70;70.10;;;;;;2069349;28;20046;-93
2022/05/15 05:54:53;;;;;;;4.68;1.85;;;15.70;69.90;;;;;;2066620;28;20050;-89
2022/05/15 05:56:13;;;;;;;7.47;2.13;;;15.80;69.80;;;;;;2072148;28;20038;-93
2022/05/15 05:57:33;;;;;;;8.48;1.98;;;15.90;69.80;;;;;;2068227;28;20234;-92
2022/05/15 05:58:52;;;;;;;8.23;2.13;;;16.00;69.60;;;;;;2072820;28;20033;-91
2022/05/15 06:00:42;;;;;;;7.15;2.03;;;16.00;69.50;;;;;;2075760;28;20054;-90
2022/05/15 06:02:01;;;;;;;6.60;1.85;;;16.00;69.30;;;;;;2082998;28;20124;-92
2022/05/15 06:04:58;;;;;;;7.28;2.08;;;16.20;69.10;;;;;;2081826;28;20049;-92
2022/05/15 06:06:18;;;;;;;7.28;2.00;;;16.20;69.10;;;;;;2082241;28;20049;-92
2022/05/15 06:07:40;;;;;;;5.57;1.90;;;16.20;69.00;;;;;;2074252;28;20520;-90
2022/05/15 06:08:59;;;;;;;8.48;2.22;;;16.20;69.00;;;;;;2070990;28;20042;-91
2022/05/15 06:10:18;;;;;;;7.05;2.20;;;16.20;68.90;;;;;;2078259;28;20048;-91
2022/05/15 06:11:38;;;;;;;8.82;2.10;;;16.20;68.80;;;;;;2082317;28;20053;-91
2022/05/15 06:12:57;;;;;;;8.35;2.60;;;16.20;68.80;;;;;;2073270;28;20046;-91
2022/05/15 06:14:16;;;;;;;9.18;2.90;;;16.10;68.80;;;;;;2071228;28;20046;-91
2022/05/15 06:15:36;;;;;;;11.98;2.45;;;16.10;68.90;;;;;;2070122;28;20042;-90
2022/05/15 06:16:55;;;;;;;8.18;2.28;;;16.10;69.00;;;;;;2080845;28;20044;-91
2022/05/15 06:18:15;;;;;;;7.35;2.30;;;16.00;69.00;;;;;;2064912;28;20046;-90
2022/05/15 06:19:34;;;;;;;7.63;2.20;;;16.10;69.10;;;;;;2067654;28;20053;-92
2022/05/15 06:20:53;;;;;;;8.07;2.45;;;16.10;69.10;;;;;;2066625;28;20424;-92
2022/05/15 06:22:12;;;;;;;7.38;2.25;;;16.20;69.10;;;;;;2075070;28;20045;-92
2022/05/15 06:23:32;;;;;;;8.80;2.33;;;16.20;68.90;;;;;;2084307;28;20045;-91
2022/05/15 06:24:51;;;;;;;7.53;2.17;;;16.30;68.70;;;;;;2063304;28;20054;-91
2022/05/15 06:26:10;;;;;;;8.57;2.50;;;16.30;68.60;;;;;;2063422;28;20042;-90
2022/05/15 06:27:29;;;;;;;8.02;2.53;;;16.30;68.60;;;;;;2075110;28;20046;-92
2022/05/15 06:28:49;;;;;;;11.93;2.60;;;16.30;68.60;;;;;;2063033;28;20536;-92
2022/05/15 06:30:09;;;;;;;7.50;2.38;;;16.30;68.60;;;;;;2069750;28;20061;-91
2022/05/15 06:31:28;;;;;;;10.00;2.90;;;16.30;68.60;;;;;;2072316;28;20049;-90
2022/05/15 06:32:48;;;;;;;9.10;2.50;;;16.30;68.60;;;;;;2068993;28;20558;-91
2022/05/15 06:34:07;;;;;;;9.75;2.83;;;16.40;68.60;;;;;;2069452;28;20046;-91
2022/05/15 06:35:26;;;;;;;8.23;2.20;;;16.40;68.50;;;;;;2053217;28;20043;-91
2022/05/15 06:36:45;;;;;;;8.15;2.22;;;16.50;68.40;;;;;;2066702;28;20042;-94
2022/05/15 06:38:06;;;;;;;7.70;2.42;;;16.50;68.20;;;;;;2064231;28;20133;-93
2022/05/15 06:39:25;;;;;;;;;;;16.60;68.10;;;;;;2075556;28;20403;-92
2022/05/15 06:40:44;;;;;;;5.22;1.80;;;16.60;68.00;;;;;;2085503;28;19921;-91
2022/05/15 06:42:06;;;;;;;8.10;2.40;;;16.70;68.00;;;;;;2067949;28;20583;-91
2022/05/15 06:43:25;;;;;;;7.60;2.08;;;16.70;67.90;;;;;;2060611;28;20043;-92
2022/05/15 06:44:44;;;;;;;9.13;2.42;;;16.70;67.70;;;;;;2071375;28;20056;-91
2022/05/15 06:46:04;;;;;;;5.57;2.03;;;16.70;67.80;;;;;;2066828;28;20492;-91
2022/05/15 06:47:24;;;;;;;7.30;2.03;;;16.80;67.80;;;;;;2068964;28;20050;-91
2022/05/15 06:48:43;;;;;;;6.60;2.05;;;16.80;67.70;;;;;;2073034;28;20034;-92
2022/05/15 06:50:06;;;;;;;5.05;1.83;;;16.90;67.60;;;;;;2071733;28;20121;-92
2022/05/15 06:51:26;;;;;;;7.63;2.30;;;16.90;67.60;;;;;;2066299;28;20050;-92
2022/05/15 06:52:46;;;;;;;8.18;2.00;;;17.00;67.40;;;;;;2051661;28;20065;-93
2022/05/15 06:54:05;;;;;;;5.47;2.10;;;17.00;67.40;;;;;;2067060;28;20500;-91
2022/05/15 06:55:25;;;;;;;6.72;2.35;;;17.00;67.40;;;;;;2070504;28;20082;-91
2022/05/15 06:58:22;;;;;;;8.73;2.60;;;17.00;67.10;;;;;;2072106;28;20484;-92
2022/05/15 06:59:42;;;;;;;7.20;2.28;;;17.10;67.20;;;;;;2065474;28;20074;-92
2022/05/15 07:01:02;;;;;;;6.60;2.03;;;17.10;67.20;;;;;;2070972;28;20041;-93
2022/05/15 07:02:24;;;;;;;6.60;2.50;;;17.10;67.10;;;;;;2068626;28;20038;-90